Time;durP1;ratioP1;P1;durP2;ratioP2;P2;SDS_P1;SDS_P2;PMS_P1;PMS_P2;Temp;Humidity;BMP_temperature;BMP_pressure;BME280_temperature;BME280_humidity;BME280_pressure;Samples;Min_cycle;Max_cycle;Signal;HPM_P1;HPM_P2
2023/09/06 00:02:59;;;;;;;5.03;4.53;;;;;;;10.53;100.00;98420.22;6287750;28;20228;-92
2023/09/06 00:06:01;;;;;;;5.27;4.77;;;;;;;10.20;100.00;98371.84;6274100;28;20607;-93
2023/09/06 00:09:04;;;;;;;4.97;4.13;;;;;;;11.02;100.00;98486.88;6270942;28;20212;-94
2023/09/06 00:12:06;;;;;;;6.57;4.40;;;;;;;10.49;100.00;98403.06;6288911;28;20216;-94
2023/09/06 00:15:09;;;;;;;5.03;4.00;;;;;;;10.79;100.00;98453.75;6286930;28;20223;-94
2023/09/06 00:18:11;;;;;;;5.20;4.70;;;;;;;9.88;100.00;98312.59;6302134;28;20214;-93
2023/09/06 00:21:14;;;;;;;5.00;4.60;;;;;;;10.98;100.00;98483.03;6282219;28;20206;-94
2023/09/06 00:24:16;;;;;;;6.73;4.63;;;;;;;9.90;100.00;98307.84;6277424;28;20237;-94
2023/09/06 00:27:18;;;;;;;5.80;4.20;;;;;;;10.46;100.00;98408.84;6298018;28;20209;-94
2023/09/06 00:30:21;;;;;;;5.30;4.50;;;;;;;10.66;100.00;98431.78;6296565;28;20237;-93
2023/09/06 00:33:26;;;;;;;7.33;4.40;;;;;;;9.81;100.00;98294.03;6294911;28;20235;-94
2023/09/06 00:36:29;;;;;;;4.63;4.17;;;;;;;10.72;100.00;98433.53;6277529;28;20312;-93
2023/09/06 00:39:32;;;;;;;5.60;4.50;;;;;;;10.41;100.00;98391.91;6289122;28;20248;-94
2023/09/06 00:42:34;;;;;;;5.83;4.63;;;;;;;10.44;100.00;98394.09;6284306;28;20233;-94
2023/09/06 00:45:45;;;;;;;5.17;4.67;;;;;;;10.64;100.00;98444.47;6277807;28;20240;-93
2023/09/06 00:48:50;;;;;;;5.83;4.53;;;;;;;9.46;100.00;98243.25;6301929;28;20226;-94
2023/09/06 00:51:53;;;;;;;7.57;4.73;;;;;;;10.21;100.00;98371.59;6305693;28;20241;-93
2023/09/06 00:54:56;;;;;;;7.23;4.77;;;;;;;10.51;100.00;98411.66;6280640;28;20233;-93
2023/09/06 00:57:58;;;;;;;5.30;4.73;;;;;;;10.68;100.00;98438.47;6282636;28;20249;-93
2023/09/06 01:01:06;;;;;;;7.43;4.63;;;;;;;10.21;100.00;98365.47;6294694;28;20312;-94
2023/09/06 01:04:08;;;;;;;5.87;5.10;;;;;;;10.23;100.00;98382.03;6274316;28;20578;-93
2023/09/06 01:07:12;;;;;;;5.03;4.37;;;;;;;9.42;100.00;98250.06;6284906;28;20293;-93
2023/09/06 01:10:15;;;;;;;5.00;4.47;;;;;;;10.46;100.00;98405.34;6271842;28;20277;-94
2023/09/06 01:13:17;;;;;;;5.10;4.47;;;;;;;10.28;100.00;98371.53;6279420;28;20229;-94
2023/09/06 01:16:26;;;;;;;6.17;4.70;;;;;;;10.58;100.00;98424.88;6267629;28;20239;-94
2023/09/06 01:19:33;;;;;;;5.07;4.43;;;;;;;9.26;100.00;98227.47;6275797;28;20231;-94
2023/09/06 01:22:40;;;;;;;5.20;4.70;;;;;;;10.26;100.00;98386.94;6273760;28;20225;-94
2023/09/06 01:25:44;;;;;;;4.77;4.37;;;;;;;10.35;100.00;98414.91;6264435;28;20237;-93
2023/09/06 01:28:49;;;;;;;5.27;4.77;;;;;;;10.16;100.00;98358.16;6300658;28;20229;-93
2023/09/06 01:31:51;;;;;;;4.97;4.47;;;;;;;10.67;100.00;98442.19;6245922;28;20757;-94
2023/09/06 01:34:54;;;;;;;5.27;4.50;;;;;;;10.64;100.00;98439.16;6230960;28;20319;-93
2023/09/06 01:37:56;;;;;;;6.17;5.23;;;;;;;9.26;100.00;98225.66;6244788;28;20248;-93
2023/09/06 01:41:03;;;;;;;4.90;4.40;;;;;;;10.56;100.00;98435.75;6245091;28;20240;-93
2023/09/06 01:44:05;;;;;;;4.97;4.47;;;;;;;10.06;100.00;98363.97;6243646;28;20228;-93
2023/09/06 01:47:08;;;;;;;5.97;5.07;;;;;;;9.51;100.00;98286.78;6235742;28;20239;-94
2023/09/06 01:50:11;;;;;;;5.00;4.60;;;;;;;10.47;100.00;98413.13;6247282;28;20335;-94
2023/09/06 01:53:13;;;;;;;6.23;4.80;;;;;;;10.09;100.00;98370.69;6244954;28;20523;-93
2023/09/06 01:56:16;;;;;;;5.07;4.60;;;;;;;10.51;100.00;98426.81;6244843;28;20231;-94
2023/09/06 01:59:18;;;;;;;6.53;4.97;;;;;;;10.57;100.00;98436.56;6244520;28;20587;-93
2023/09/06 02:02:20;;;;;;;4.87;4.47;;;;;;;10.54;100.00;98439.69;6211054;28;20705;-94
2023/09/06 02:05:23;;;;;;;5.07;4.57;;;;;;;9.60;100.00;98291.78;6252375;28;20384;-93
2023/09/06 02:08:25;;;;;;;5.53;5.03;;;;;;;10.31;100.00;98406.53;6167205;28;20225;-93
2023/09/06 02:11:31;;;;;;;5.57;4.97;;;;;;;9.48;100.00;98276.56;6236532;28;20237;-90
2023/09/06 02:14:34;;;;;;;6.93;4.50;;;;;;;10.40;100.00;98427.56;6214951;28;20733;-91
2023/09/06 02:17:37;;;;;;;5.50;5.00;;;;;;;9.25;100.00;98245.28;6195723;28;20234;-90
2023/09/06 02:20:39;;;;;;;5.80;4.97;;;;;;;10.41;100.00;98407.88;6235765;28;20369;-91
2023/09/06 02:23:42;;;;;;;5.73;4.93;;;;;;;9.44;100.00;98250.63;6243664;28;20622;-91
2023/09/06 02:26:46;;;;;;;5.53;5.03;;;;;;;10.05;100.00;98348.25;6227113;28;20318;-91
2023/09/06 02:29:52;;;;;;;5.20;4.67;;;;;;;9.54;100.00;98265.03;6267438;28;20252;-91
2023/09/06 02:32:55;;;;;;;6.50;4.70;;;;;;;10.04;100.00;98343.94;6280837;28;20518;-90
2023/09/06 02:35:57;;;;;;;5.97;4.87;;;;;;;9.51;100.00;98267.34;6280523;28;20233;-90
2023/09/06 02:39:01;;;;;;;6.07;4.87;;;;;;;9.71;100.00;98291.09;6282377;28;20430;-90
2023/09/06 02:42:03;;;;;;;6.57;5.10;;;;;;;9.73;100.00;98305.78;6283732;28;20239;-91
2023/09/06 02:45:09;;;;;;;5.67;5.00;;;;;;;10.13;100.00;98403.03;6267754;28;20224;-90
2023/09/06 02:48:15;;;;;;;6.23;4.90;;;;;;;10.08;100.00;98355.78;6283377;28;20223;-90
2023/09/06 02:51:18;;;;;;;4.90;4.50;;;;;;;10.56;100.00;98432.28;6283197;28;20214;-90
2023/09/06 02:54:20;;;;;;;5.90;4.37;;;;;;;9.61;100.00;98291.59;6282755;28;20216;-91
2023/09/06 02:57:23;;;;;;;6.23;4.77;;;;;;;10.23;100.00;98411.31;6275195;28;20389;-91
2023/09/06 03:00:25;;;;;;;6.07;4.80;;;;;;;9.79;100.00;98299.56;6282581;28;20229;-90
2023/09/06 03:03:30;;;;;;;5.97;4.47;;;;;;;9.52;100.00;98266.31;6287983;28;20724;-90
2023/09/06 03:06:34;;;;;;;4.60;4.17;;;;;;;10.29;100.00;98403.28;6297499;28;20363;-90
2023/09/06 03:09:39;;;;;;;5.70;4.87;;;;;;;10.18;100.00;98384.53;6288134;28;20248;-91
2023/09/06 03:12:43;;;;;;;4.97;4.53;;;;;;;9.30;100.00;98242.78;6282414;28;20238;-90
2023/09/06 03:15:51;;;;;;;6.23;4.73;;;;;;;10.03;100.00;98383.06;6286796;28;20236;-90
2023/09/06 03:18:54;;;;;;;7.07;4.30;;;;;;;9.48;100.00;98284.56;6286141;28;20746;-90
2023/09/06 03:21:56;;;;;;;5.10;4.60;;;;;;;10.26;100.00;98425.03;6288108;28;20619;-91
2023/09/06 03:24:58;;;;;;;5.10;4.30;;;;;;;10.56;100.00;98454.41;6274164;28;20240;-90
2023/09/06 03:28:01;;;;;;;5.00;4.40;;;;;;;10.24;100.00;98419.09;6285455;28;20236;-91
2023/09/06 03:31:08;;;;;;;5.07;4.60;;;;;;;10.45;100.00;98436.50;6271800;28;20261;-90
2023/09/06 03:34:13;;;;;;;5.20;4.30;;;;;;;9.13;100.00;98233.75;6287978;28;20231;-90
2023/09/06 03:37:18;;;;;;;4.90;4.50;;;;;;;10.25;100.00;98409.28;6294996;28;20282;-90
2023/09/06 03:40:36;;;;;;;6.30;4.87;;;;;;;10.33;100.00;98411.63;6267567;28;20600;-90
2023/09/06 03:43:39;;;;;;;4.70;4.20;;;;;;;10.36;100.00;98418.38;6293722;28;20228;-91
2023/09/06 03:46:41;;;;;;;5.30;4.80;;;;;;;9.71;100.00;98318.50;6287727;28;20236;-90
2023/09/06 03:49:45;;;;;;;5.23;4.73;;;;;;;9.63;100.00;98324.09;6274532;28;20261;-90
2023/09/06 03:52:48;;;;;;;4.73;4.33;;;;;;;9.66;100.00;98307.72;6270547;28;20239;-90
2023/09/06 03:55:51;;;;;;;6.13;4.00;;;;;;;10.54;100.00;98453.00;6274655;28;20316;-91
2023/09/06 03:58:54;;;;;;;5.97;4.17;;;;;;;9.28;100.00;98258.16;6267591;28;20623;-90
2023/09/06 04:01:56;;;;;;;4.80;4.30;;;;;;;10.02;100.00;98372.63;6287094;28;20239;-91
2023/09/06 04:05:02;;;;;;;6.83;4.67;;;;;;;10.29;100.00;98410.44;6300187;28;20370;-91
2023/09/06 04:08:04;;;;;;;5.40;4.90;;;;;;;9.74;100.00;98335.84;6286960;28;20267;-90
2023/09/06 04:11:06;;;;;;;5.13;4.30;;;;;;;9.89;100.00;98354.13;6292558;28;20228;-91
2023/09/06 04:14:09;;;;;;;4.27;3.87;;;;;;;9.83;100.00;98353.97;6268565;28;20279;-91
2023/09/06 04:17:12;;;;;;;4.40;4.00;;;;;;;9.63;100.00;98323.28;6294183;28;20228;-90
2023/09/06 04:20:20;;;;;;;6.27;4.33;;;;;;;9.54;100.00;98322.75;6287336;28;20229;-91
2023/09/06 04:23:24;;;;;;;4.83;4.43;;;;;;;9.87;100.00;98359.69;6279031;28;20235;-89
2023/09/06 04:26:30;;;;;;;5.23;4.73;;;;;;;9.93;100.00;98382.75;6285685;28;20346;-90
2023/09/06 04:29:32;;;;;;;6.70;4.73;;;;;;;9.44;100.00;98287.88;6269693;28;20240;-90
2023/09/06 04:32:37;;;;;;;5.00;3.93;;;;;;;9.58;100.00;98331.94;6271337;28;20277;-91
2023/09/06 04:35:44;;;;;;;4.57;4.17;;;;;;;10.49;100.00;98445.69;6279173;28;20310;-90
2023/09/06 04:38:48;;;;;;;5.00;4.50;;;;;;;9.35;100.00;98255.41;6268990;28;20225;-90
2023/09/06 04:41:50;;;;;;;4.80;4.23;;;;;;;10.15;100.00;98392.97;6295396;28;20220;-91
2023/09/06 04:44:54;;;;;;;5.17;4.67;;;;;;;10.11;100.00;98395.28;6265857;28;20235;-90
2023/09/06 04:47:56;;;;;;;5.30;4.57;;;;;;;10.04;100.00;98386.53;6269924;28;20822;-91
2023/09/06 04:50:59;;;;;;;5.10;4.60;;;;;;;9.41;100.00;98297.09;6283943;28;20237;-91
2023/09/06 04:54:03;;;;;;;6.40;5.10;;;;;;;8.90;100.00;98222.91;6265607;28;20422;-90
2023/09/06 04:57:09;;;;;;;6.73;5.00;;;;;;;10.01;100.00;98405.63;6287574;28;20206;-90
2023/09/06 05:00:30;;;;;;;6.97;6.27;;;;;;;10.46;100.00;98461.31;6294005;28;20266;-91
2023/09/06 05:03:33;;;;;;;6.10;4.80;;;;;;;9.68;100.00;98331.41;6285955;28;20236;-91
2023/09/06 05:06:36;;;;;;;5.10;4.63;;;;;;;10.19;100.00;98394.97;6268871;28;20331;-91
2023/09/06 05:09:40;;;;;;;5.13;4.63;;;;;;;10.37;100.00;98428.81;6280063;28;20229;-91
2023/09/06 05:12:45;;;;;;;4.87;4.47;;;;;;;10.09;100.00;98390.16;6270221;28;20238;-91
2023/09/06 05:15:47;;;;;;;5.47;4.60;;;;;;;10.41;100.00;98432.66;6275224;28;20225;-91
2023/09/06 05:18:50;;;;;;;7.23;5.23;;;;;;;10.22;100.00;98381.22;6268342;28;20300;-90
2023/09/06 05:21:57;;;;;;;5.13;4.63;;;;;;;10.81;100.00;98475.66;6259109;28;20311;-90
2023/09/06 05:24:59;;;;;;;6.20;5.30;;;;;;;10.08;100.00;98359.25;6290519;28;20244;-90
2023/09/06 05:28:10;;;;;;;6.83;5.27;;;;;;;9.53;100.00;98260.75;6269728;28;20231;-90
2023/09/06 05:31:20;;;;;;;5.90;5.27;;;;;;;10.23;100.00;98372.19;6275171;28;20248;-90
2023/09/06 05:34:25;;;;;;;5.50;4.90;;;;;;;10.01;100.00;98323.91;6279515;28;20240;-91
2023/09/06 05:37:27;;;;;;;6.27;4.97;;;;;;;10.28;100.00;98377.69;6291348;28;20229;-93
2023/09/06 05:40:32;;;;;;;6.20;5.53;;;;;;;11.11;100.00;98472.19;6301653;22;20233;-55
2023/09/06 05:43:36;;;;;;;6.10;5.10;;;;;;;11.07;100.00;98453.16;6255465;28;20686;-54
2023/09/06 05:46:39;;;;;;;5.70;5.20;;;;;;;11.25;100.00;98478.97;6258895;28;20290;-55
2023/09/06 05:49:46;;;;;;;6.40;5.37;;;;;;;11.30;100.00;98473.78;6279350;28;20268;-59
2023/09/06 05:52:49;;;;;;;7.90;5.27;;;;;;;11.21;100.00;98459.13;6275780;28;20234;-56
2023/09/06 05:55:52;;;;;;;6.50;4.73;;;;;;;11.41;100.00;98479.38;6278550;28;20238;-57
2023/09/06 05:58:54;;;;;;;6.53;5.27;;;;;;;11.47;100.00;98483.78;6272570;28;20244;-55
2023/09/06 06:01:57;;;;;;;6.23;5.57;;;;;;;11.53;100.00;98490.91;6276066;28;20238;-54
2023/09/06 06:05:00;;;;;;;6.00;5.47;;;;;;;11.59;100.00;98490.81;6277293;28;20254;-56
2023/09/06 06:08:02;;;;;;;5.70;5.20;;;;;;;11.68;100.00;98490.50;6278981;28;20239;-54
2023/09/06 06:11:05;;;;;;;9.83;5.90;;;;;;;11.72;100.00;98487.09;6275206;28;20227;-56
2023/09/06 06:14:07;;;;;;;9.83;5.97;;;;;;;11.78;100.00;98499.56;6273762;28;20310;-56
2023/09/06 06:17:12;;;;;;;6.27;5.57;;;;;;;11.88;100.00;98504.38;6276563;28;20222;-57
2023/09/06 06:20:17;;;;;;;5.63;4.70;;;;;;;11.96;100.00;98511.22;6278291;28;20285;-57
2023/09/06 06:23:29;;;;;;;5.80;5.20;;;;;;;12.06;100.00;98512.25;6275785;28;20333;-56
2023/09/06 06:26:34;;;;;;;7.57;6.00;;;;;;;12.18;100.00;98514.97;6274700;28;20263;-56
2023/09/06 06:29:36;;;;;;;12.50;6.23;;;;;;;12.36;100.00;98519.38;6278748;28;20235;-56
2023/09/06 06:32:39;;;;;;;7.37;5.57;;;;;;;12.50;100.00;98511.94;6268376;28;20306;-56
